Time;durP1;ratioP1;P1;durP2;ratioP2;P2;SDS_P1;SDS_P2;PMS_P1;PMS_P2;Temp;Humidity;BMP_temperature;BMP_pressure;BME280_temperature;BME280_humidity;BME280_pressure;Samples;Min_cycle;Max_cycle;Signal;HPM_P1;HPM_P2
2022/07/25 00:00:55;;;;;;;9.43;8.38;;;;;;;22.21;54.12;96007.59;10133501;28;98421;-62
2022/07/25 00:05:58;;;;;;;8.55;7.75;;;;;;;21.89;54.76;96013.13;10142801;28;97006;-62
2022/07/25 00:11:01;;;;;;;9.98;7.85;;;;;;;21.79;54.77;96004.88;10139492;28;98289;-62
2022/07/25 00:16:06;;;;;;;8.50;7.75;;;;;;;21.85;54.03;96009.31;10134867;28;96772;-61
2022/07/25 00:21:09;;;;;;;9.55;8.73;;;;;;;21.75;55.56;96009.03;10128406;28;96966;-62
2022/07/25 00:26:13;;;;;;;9.45;8.48;;;;;;;21.33;56.31;96001.72;10138898;28;98521;-61
2022/07/25 00:31:17;;;;;;;9.05;8.25;;;;;;;21.03;57.50;96001.59;10140047;28;98632;-61
2022/07/25 00:36:20;;;;;;;;;;;;;;;20.79;56.58;95987.34;10141482;28;97022;-62
2022/07/25 00:41:23;;;;;;;9.05;8.15;;;;;;;20.83;56.45;95980.56;10137175;28;97570;-63
2022/07/25 00:46:30;;;;;;;8.63;7.72;;;;;;;20.99;55.73;95979.19;10123886;28;97787;-64
2022/07/25 00:51:35;;;;;;;8.93;7.32;;;;;;;21.15;55.39;95975.16;10121027;28;96910;-64
2022/07/25 00:56:40;;;;;;;10.23;7.72;;;;;;;21.16;55.94;95963.50;10128276;28;96827;-62
2022/07/25 01:01:46;;;;;;;9.20;8.30;;;;;;;21.05;55.88;95978.28;10123365;28;97819;-62
2022/07/25 01:06:50;;;;;;;8.52;7.43;;;;;;;20.84;55.83;95984.84;10128033;28;98562;-63
2022/07/25 01:11:53;;;;;;;9.10;7.70;;;;;;;20.71;56.06;95978.59;10129537;28;96977;-63
2022/07/25 01:16:57;;;;;;;7.28;6.43;;;;;;;20.68;55.03;95973.72;10119665;28;96935;-62
2022/07/25 01:22:01;;;;;;;8.18;7.15;;;;;;;20.73;54.94;95970.41;10127324;28;96888;-63
2022/07/25 01:27:04;;;;;;;8.48;7.13;;;;;;;20.73;54.88;95960.59;10127000;28;98523;-62
2022/07/25 01:32:07;;;;;;;7.57;6.88;;;;;;;20.72;55.19;95958.16;10126750;28;97700;-62
2022/07/25 01:37:11;;;;;;;8.15;7.35;;;;;;;20.75;55.69;95961.25;10127201;28;97740;-62
2022/07/25 01:42:14;;;;;;;8.27;7.47;;;;;;;20.64;54.91;95956.59;10122463;28;98656;-64
2022/07/25 01:47:17;;;;;;;8.32;7.38;;;;;;;20.40;55.96;95954.78;10124831;28;98407;-62
2022/07/25 01:52:21;;;;;;;9.63;8.05;;;;;;;20.17;57.86;95956.19;10109946;28;97891;-63
2022/07/25 01:57:24;;;;;;;9.25;7.22;;;;;;;20.17;57.40;95950.88;10125234;28;98607;-62
2022/07/25 02:02:32;;;;;;;8.73;6.70;;;;;;;20.18;56.36;95953.31;10125951;28;98105;-62
2022/07/25 02:07:36;;;;;;;7.43;6.07;;;;;;;20.08;56.29;95960.09;10128564;28;98206;-64
2022/07/25 02:12:39;;;;;;;6.47;5.68;;;;;;;20.01;55.39;95952.22;10124939;28;98111;-63
2022/07/25 02:17:42;;;;;;;7.10;6.40;;;;;;;20.08;55.75;95947.66;10131431;28;97633;-67
2022/07/25 02:22:46;;;;;;;7.22;6.50;;;;;;;20.07;55.79;95955.84;10125026;28;98351;-62
2022/07/25 02:27:49;;;;;;;7.60;6.90;;;;;;;19.98;55.58;95955.28;10114976;28;100089;-62
2022/07/25 02:32:53;;;;;;;7.47;6.72;;;;;;;19.78;56.74;95944.75;10124225;28;96885;-62
2022/07/25 02:37:57;;;;;;;6.95;6.07;;;;;;;19.67;56.86;95953.38;10124192;28;98467;-62
2022/07/25 02:43:00;;;;;;;;;;;;;;;19.58;56.94;95953.63;10115907;28;97925;-62
2022/07/25 02:48:03;;;;;;;7.97;6.95;;;;;;;19.54;57.58;95952.44;10123681;28;97064;-62
2022/07/25 02:53:07;;;;;;;8.20;7.40;;;;;;;19.54;57.73;95949.78;10123447;28;98255;-62
2022/07/25 02:58:11;;;;;;;10.70;8.30;;;;;;;19.58;58.96;95948.31;10122389;28;96910;-62
2022/07/25 03:03:13;;;;;;;8.75;7.57;;;;;;;19.58;59.18;95948.31;10123076;28;98779;-63
2022/07/25 03:08:18;;;;;;;8.23;7.53;;;;;;;19.49;60.27;95944.31;10125293;28;97044;-62
2022/07/25 03:13:21;;;;;;;10.38;8.77;;;;;;;19.45;59.99;95932.47;10125002;28;99271;-62
2022/07/25 03:18:23;;;;;;;8.55;7.75;;;;;;;19.28;60.65;95937.47;10128426;28;97053;-63
2022/07/25 03:23:29;;;;;;;8.73;7.47;;;;;;;18.92;61.65;95938.78;10128415;28;96873;-62
2022/07/25 03:28:32;;;;;;;9.35;7.10;;;;;;;18.71;61.11;95947.75;10130860;28;96889;-62
2022/07/25 03:33:35;;;;;;;7.75;6.38;;;;;;;18.76;60.11;95934.72;10127271;28;98460;-62
2022/07/25 03:38:40;;;;;;;7.07;6.38;;;;;;;18.90;59.19;95945.31;10125146;28;96953;-62
2022/07/25 03:43:43;;;;;;;;;;;;;;;19.03;58.86;95945.28;10125247;28;98075;-63
2022/07/25 03:48:45;;;;;;;8.07;5.85;;;;;;;19.06;58.37;95948.31;10133057;28;96778;-62
2022/07/25 03:54:02;;;;;;;8.48;6.30;;;;;;;19.03;58.47;95945.28;10123667;28;98613;-62
2022/07/25 03:59:06;;;;;;;8.52;7.20;;;;;;;19.01;58.40;95949.97;10129173;28;96828;-62
2022/07/25 04:04:10;;;;;;;7.70;6.90;;;;;;;18.87;59.23;95939.41;10131212;28;98509;-62
2022/07/25 04:09:15;;;;;;;8.00;6.77;;;;;;;18.69;60.42;95944.53;10130591;28;98583;-63
2022/07/25 04:14:18;;;;;;;7.93;6.05;;;;;;;18.65;59.64;95941.47;10114384;28;97156;-65
2022/07/25 04:19:21;;;;;;;7.72;6.30;;;;;;;18.69;59.73;95937.38;10125588;28;96898;-63
2022/07/25 04:24:29;;;;;;;6.60;5.97;;;;;;;18.75;58.51;95938.38;10129508;28;97064;-62
2022/07/25 04:29:32;;;;;;;7.57;6.15;;;;;;;18.79;59.13;95944.88;10128388;28;97159;-62
2022/07/25 04:34:34;;;;;;;8.25;6.65;;;;;;;18.76;58.84;95945.31;10125579;28;97070;-62
2022/07/25 04:39:39;;;;;;;6.55;5.90;;;;;;;18.79;58.49;95950.16;10114083;28;98275;-62
2022/07/25 04:44:41;;;;;;;7.32;6.55;;;;;;;18.81;58.60;95953.44;10142207;28;97005;-63
2022/07/25 04:49:44;;;;;;;7.88;7.00;;;;;;;18.83;59.52;95948.75;10128191;28;98063;-64
2022/07/25 04:54:49;;;;;;;8.30;7.13;;;;;;;18.92;59.93;95948.56;10126337;28;98540;-60
2022/07/25 04:59:52;;;;;;;6.68;6.00;;;;;;;19.03;59.41;95945.28;10124551;28;98435;-60
2022/07/25 05:04:55;;;;;;;7.70;6.45;;;;;;;19.11;59.00;95950.34;10131636;28;97402;-60
2022/07/25 05:10:00;;;;;;;7.75;6.68;;;;;;;19.25;58.04;95949.28;10120535;28;97943;-61
2022/07/25 05:15:03;;;;;;;;;;;;;;;19.35;58.34;95945.34;10130369;28;98446;-61
2022/07/25 05:20:07;;;;;;;6.75;6.05;;;;;;;19.45;58.35;95943.06;10122291;28;96847;-62
2022/07/25 05:25:12;;;;;;;7.22;6.50;;;;;;;19.58;57.37;95937.72;10128105;28;98036;-61
2022/07/25 05:30:15;;;;;;;;;;;;;;;19.79;56.25;95944.53;10133183;28;96807;-62
2022/07/25 05:35:18;;;;;;;7.00;6.15;;;;;;;20.02;57.97;95939.75;10134825;28;97906;-60
2022/07/25 05:40:23;;;;;;;7.28;6.25;;;;;;;20.21;56.85;95933.50;10118834;28;96888;-61
2022/07/25 05:45:25;;;;;;;9.73;6.47;;;;;;;20.46;56.10;95943.28;10143128;28;96826;-60
2022/07/25 05:50:28;;;;;;;8.13;6.75;;;;;;;20.70;55.12;95945.13;10123105;28;97339;-60
2022/07/25 05:55:33;;;;;;;7.32;6.38;;;;;;;20.94;55.79;95932.84;10124205;28;96747;-61
2022/07/25 06:00:41;;;;;;;7.28;6.35;;;;;;;21.12;54.88;95941.88;10132066;28;97742;-62
2022/07/25 06:05:45;;;;;;;6.80;5.90;;;;;;;21.23;54.22;95942.97;10146669;28;96730;-60
2022/07/25 06:10:49;;;;;;;9.57;5.97;;;;;;;21.41;54.35;95942.94;10145035;28;97059;-61
2022/07/25 06:15:53;;;;;;;6.05;5.45;;;;;;;21.69;53.38;95942.44;10134250;28;97860;-62
2022/07/25 06:20:56;;;;;;;6.00;5.50;;;;;;;21.86;52.38;95944.44;10146467;28;98353;-61
2022/07/25 06:26:00;;;;;;;6.05;5.50;;;;;;;21.98;51.61;95941.84;10135472;28;97752;-61
2022/07/25 06:31:02;;;;;;;;;;;;;;;22.11;51.68;95931.00;10131180;28;98096;-61
2022/07/25 06:36:06;;;;;;;7.63;5.50;;;;;;;22.25;51.12;95935.06;10126540;28;96948;-61
2022/07/25 06:41:15;;;;;;;5.77;5.20;;;;;;;22.38;49.79;95928.72;10124717;28;99207;-61
2022/07/25 06:46:17;;;;;;;8.68;5.88;;;;;;;22.52;49.51;95945.31;10119769;28;97186;-61
2022/07/25 06:51:22;;;;;;;8.52;6.25;;;;;;;22.67;49.32;95946.72;10105473;28;97779;-61
2022/07/25 06:56:30;;;;;;;8.25;6.10;;;;;;;22.87;49.03;95944.50;10107433;28;98629;-62
2022/07/25 07:01:33;;;;;;;7.32;6.28;;;;;;;22.98;48.56;95948.22;10114250;28;97394;-61
2022/07/25 07:06:37;;;;;;;6.90;5.90;;;;;;;23.20;47.89;95935.06;10151609;28;96943;-61
2022/07/25 07:11:41;;;;;;;6.82;5.78;;;;;;;23.34;47.32;95941.81;10152648;28;96898;-62
2022/07/25 07:16:44;;;;;;;7.55;5.70;;;;;;;23.52;47.33;95934.69;10153404;28;97084;-62
2022/07/25 07:21:50;;;;;;;5.80;5.20;;;;;;;23.60;47.62;95939.63;10147549;28;98442;-61
2022/07/25 07:26:54;;;;;;;6.27;5.67;;;;;;;23.73;46.45;95938.56;10142112;28;96909;-62
2022/07/25 07:31:57;;;;;;;5.20;4.70;;;;;;;23.82;45.73;95936.31;10135406;28;96742;-62
2022/07/25 07:37:01;;;;;;;5.53;4.82;;;;;;;24.05;45.61;95933.53;10127543;28;97881;-62
2022/07/25 07:42:05;;;;;;;6.05;5.45;;;;;;;24.37;44.68;95925.00;10122462;28;97535;-61
2022/07/25 07:47:08;;;;;;;5.38;4.88;;;;;;;24.56;44.22;95935.44;10150664;28;96831;-62
2022/07/25 07:52:16;;;;;;;5.60;5.10;;;;;;;24.80;44.09;95934.22;10139351;28;96942;-62
2022/07/25 07:57:20;;;;;;;5.90;4.78;;;;;;;24.96;44.00;95927.25;10127134;28;98668;-62
2022/07/25 08:02:23;;;;;;;6.40;5.75;;;;;;;25.19;43.62;95923.53;10129875;28;97134;-62
2022/07/25 08:07:26;;;;;;;6.47;4.97;;;;;;;25.40;42.78;95929.94;10134518;28;96838;-62
2022/07/25 08:12:30;;;;;;;5.97;5.07;;;;;;;25.67;42.53;95928.38;10134143;28;96810;-61
2022/07/25 08:17:33;;;;;;;5.88;4.72;;;;;;;25.83;42.00;95922.16;10134442;28;97708;-62
2022/07/25 08:22:37;;;;;;;5.53;4.93;;;;;;;26.04;41.43;95917.00;10134333;28;97606;-61
2022/07/25 08:27:42;;;;;;;5.47;4.97;;;;;;;26.29;40.90;95911.06;10133950;28;98757;-62
2022/07/25 08:32:49;;;;;;;5.53;5.00;;;;;;;26.42;40.33;95913.31;10134524;28;96871;-62
2022/07/25 08:37:53;;;;;;;6.75;4.95;;;;;;;26.68;39.83;95916.19;10129019;28;96963;-62
2022/07/25 08:42:58;;;;;;;5.30;4.80;;;;;;;26.96;38.94;95914.25;10133877;28;98456;-62
2022/07/25 08:48:01;;;;;;;8.27;4.70;;;;;;;27.26;37.93;95905.53;10132531;28;96960;-62
2022/07/25 08:53:05;;;;;;;4.90;4.40;;;;;;;27.47;37.20;95911.78;10126323;28;96929;-62
2022/07/25 08:58:29;;;;;;;4.77;4.37;;;;;;;27.76;36.58;95898.75;10130161;28;96948;-62
2022/07/25 09:03:32;;;;;;;5.97;4.55;;;;;;;27.92;36.42;95901.47;10132669;28;96936;-62
2022/07/25 09:08:35;;;;;;;5.10;4.60;;;;;;;28.08;36.17;95908.44;10132687;28;96889;-62
2022/07/25 09:13:40;;;;;;;6.07;4.90;;;;;;;28.23;35.55;95907.66;10132089;28;96874;-62
2022/07/25 09:18:44;;;;;;;4.78;4.38;;;;;;;28.35;35.31;95910.13;10132707;28;98939;-62
2022/07/25 09:23:47;;;;;;;4.50;4.10;;;;;;;28.49;35.09;95907.69;10133111;28;96926;-63
2022/07/25 09:28:53;;;;;;;6.03;4.37;;;;;;;28.68;34.59;95907.94;10131451;28;97072;-62
2022/07/25 09:33:58;;;;;;;6.43;4.63;;;;;;;28.82;33.84;95902.81;10131698;28;96832;-62
2022/07/25 09:39:04;;;;;;;6.60;4.38;;;;;;;29.01;34.24;95897.69;10131059;28;96798;-63
2022/07/25 09:44:17;;;;;;;5.78;4.47;;;;;;;29.22;34.08;95899.22;10130849;28;97247;-62
2022/07/25 09:49:20;;;;;;;5.15;4.07;;;;;;;29.42;33.75;95900.22;10131335;28;97020;-62
2022/07/25 09:54:23;;;;;;;5.28;4.25;;;;;;;29.58;33.36;95904.47;10120551;28;97030;-63
2022/07/25 09:59:27;;;;;;;4.97;4.53;;;;;;;29.67;32.95;95900.13;10131381;28;96912;-63
2022/07/25 10:04:43;;;;;;;4.78;4.28;;;;;;;29.80;32.93;95897.88;10130688;28;97260;-63
2022/07/25 10:09:49;;;;;;;6.22;5.00;;;;;;;30.04;32.49;95890.75;10130834;28;96946;-62
2022/07/25 10:15:14;;;;;;;4.47;4.07;;;;;;;30.40;32.18;95893.16;10131959;28;96924;-63
2022/07/25 10:20:27;;;;;;;4.68;4.28;;;;;;;30.80;31.64;95871.53;10127439;28;97104;-63
2022/07/25 10:25:30;;;;;;;;;;;;;;;31.17;31.84;95865.44;10129950;28;98174;-63
2022/07/25 10:30:36;;;;;;;6.00;4.25;;;;;;;31.40;31.32;95860.34;10129187;28;96808;-63
2022/07/25 10:35:40;;;;;;;5.25;4.25;;;;;;;31.69;30.81;95870.19;10129910;28;96853;-62
2022/07/25 10:40:45;;;;;;;4.38;3.97;;;;;;;31.87;30.07;95855.88;10130578;28;96993;-62
2022/07/25 10:45:52;;;;;;;5.07;4.50;;;;;;;32.05;30.11;95854.28;10141258;28;97017;-62
2022/07/25 10:50:58;;;;;;;5.38;4.85;;;;;;;32.22;29.88;95853.75;10139100;28;96911;-62
2022/07/25 10:56:08;;;;;;;5.78;4.38;;;;;;;32.48;29.47;95842.50;10125192;28;97057;-62
2022/07/25 11:01:14;;;;;;;4.63;4.22;;;;;;;32.66;29.17;95836.22;10129488;28;97178;-62
2022/07/25 11:06:28;;;;;;;4.45;4.05;;;;;;;32.75;28.96;95836.34;10129942;28;96952;-62
2022/07/25 11:11:36;;;;;;;5.10;4.53;;;;;;;32.93;28.86;95831.94;10129166;28;96712;-62
2022/07/25 11:16:40;;;;;;;5.00;4.50;;;;;;;33.06;28.71;95825.75;10129435;28;96747;-62
2022/07/25 11:21:45;;;;;;;4.88;4.38;;;;;;;33.23;28.15;95818.91;10127722;28;96756;-62
2022/07/25 11:26:50;;;;;;;4.93;4.43;;;;;;;33.39;28.09;95820.19;10129168;28;96871;-63
2022/07/25 11:31:57;;;;;;;5.80;4.70;;;;;;;33.83;27.00;95802.44;10127990;28;97489;-62
2022/07/25 11:37:01;;;;;;;5.53;4.40;;;;;;;34.18;26.74;95807.31;10130020;28;96877;-62
2022/07/25 11:42:07;;;;;;;4.75;4.18;;;;;;;34.24;26.37;95799.84;10127193;28;96989;-63
2022/07/25 11:47:24;;;;;;;4.75;4.35;;;;;;;34.28;26.40;95777.22;10135217;28;96842;-62
2022/07/25 11:52:29;;;;;;;5.03;4.53;;;;;;;34.31;26.16;95794.78;10126244;28;97167;-63
2022/07/25 11:57:34;;;;;;;5.13;4.63;;;;;;;34.39;26.40;95786.69;10135561;28;96877;-62
2022/07/25 12:02:38;;;;;;;5.47;4.65;;;;;;;34.70;26.41;95785.09;10134674;28;96972;-62
2022/07/25 12:07:44;;;;;;;8.13;4.50;;;;;;;34.93;26.22;95778.44;10133988;28;96869;-63
2022/07/25 12:12:49;;;;;;;5.88;4.53;;;;;;;34.95;26.15;95776.22;10133407;28;96901;-62
2022/07/25 12:17:55;;;;;;;5.68;4.57;;;;;;;34.88;25.95;95775.88;10134482;28;96817;-62
2022/07/25 12:23:00;;;;;;;5.05;4.38;;;;;;;34.86;26.53;95778.13;10133856;28;96841;-63
2022/07/25 12:28:04;;;;;;;5.13;4.63;;;;;;;34.83;26.25;95767.09;10132796;28;96857;-63
2022/07/25 12:33:09;;;;;;;6.15;4.45;;;;;;;34.78;26.08;95770.75;10127455;28;96760;-62
2022/07/25 12:38:13;;;;;;;4.45;4.05;;;;;;;35.01;26.02;95773.34;10123944;28;97561;-62
2022/07/25 12:43:16;;;;;;;5.07;4.57;;;;;;;35.06;26.12;95773.22;10137428;28;97901;-62
2022/07/25 12:48:20;;;;;;;5.88;4.70;;;;;;;35.17;26.02;95771.81;10156129;28;96906;-65
2022/07/25 12:53:23;;;;;;;4.80;4.32;;;;;;;35.32;25.93;95767.84;10136944;28;97122;-63
2022/07/25 12:58:26;;;;;;;5.00;4.50;;;;;;;35.32;25.92;95757.81;10133189;28;97210;-62
2022/07/25 13:03:30;;;;;;;5.45;4.47;;;;;;;35.19;26.33;95753.31;10131315;28;97208;-62
2022/07/25 13:08:36;;;;;;;5.07;4.05;;;;;;;35.00;25.97;95752.78;10132587;28;97783;-63
2022/07/25 13:13:39;;;;;;;5.43;4.70;;;;;;;35.12;25.98;95748.31;10132402;28;98622;-62
2022/07/25 13:18:44;;;;;;;5.20;4.80;;;;;;;35.39;25.98;95734.78;10132760;28;96799;-62
2022/07/25 13:23:47;;;;;;;4.95;4.45;;;;;;;35.25;26.25;95749.34;10132306;28;96896;-63
2022/07/25 13:28:50;;;;;;;5.75;4.50;;;;;;;35.02;26.25;95745.13;10131630;28;96894;-62
2022/07/25 13:34:01;;;;;;;5.07;4.53;;;;;;;34.72;26.78;95744.88;10126758;28;97311;-62
2022/07/25 13:39:04;;;;;;;5.38;4.50;;;;;;;34.64;26.91;95732.06;10132351;28;97245;-62
2022/07/25 13:44:07;;;;;;;6.07;4.80;;;;;;;34.69;27.01;95729.22;10130663;28;98455;-63
2022/07/25 13:49:12;;;;;;;5.47;4.57;;;;;;;34.87;26.98;95724.63;10131803;28;96799;-63
2022/07/25 13:54:15;;;;;;;5.45;4.15;;;;;;;34.87;27.20;95730.06;10121935;28;97145;-62
2022/07/25 13:59:18;;;;;;;5.38;4.60;;;;;;;35.00;26.50;95725.63;10130572;28;97243;-62
2022/07/25 14:04:25;;;;;;;5.07;4.68;;;;;;;34.95;26.96;95719.22;10130740;28;96802;-62
2022/07/25 14:09:27;;;;;;;5.43;4.68;;;;;;;35.24;26.79;95723.28;10130427;28;97016;-63
2022/07/25 14:14:30;;;;;;;4.93;4.43;;;;;;;35.86;26.57;95724.06;10130812;28;96863;-62
2022/07/25 14:19:35;;;;;;;5.53;4.45;;;;;;;35.72;26.64;95728.88;10130440;28;97657;-62
2022/07/25 14:24:38;;;;;;;5.68;4.75;;;;;;;35.70;26.12;95724.59;10130493;28;96887;-62
2022/07/25 14:29:41;;;;;;;6.40;4.30;;;;;;;36.06;26.30;95726.09;10131373;28;98712;-62
2022/07/25 14:34:45;;;;;;;5.93;4.35;;;;;;;36.20;25.61;95719.66;10130090;28;96845;-62
2022/07/25 14:39:48;;;;;;;5.00;3.97;;;;;;;36.33;25.23;95715.97;10130098;28;96793;-63
2022/07/25 14:44:51;;;;;;;5.60;4.07;;;;;;;36.35;25.36;95727.31;10124362;28;96956;-62
2022/07/25 14:49:55;;;;;;;5.63;4.03;;;;;;;36.79;25.64;95724.41;10127731;28;97489;-62
2022/07/25 14:54:59;;;;;;;5.28;4.30;;;;;;;36.84;24.72;95732.38;10119865;28;96878;-62
2022/07/25 15:00:04;;;;;;;4.70;4.15;;;;;;;36.01;25.60;95737.13;10129525;28;96751;-63
2022/07/25 15:05:09;;;;;;;4.60;4.15;;;;;;;36.02;25.84;95719.72;10129337;28;96867;-62
2022/07/25 15:10:13;;;;;;;5.28;4.30;;;;;;;36.04;25.83;95722.91;10129254;28;98671;-62
2022/07/25 15:15:16;;;;;;;4.93;4.10;;;;;;;35.37;27.06;95709.88;10135433;28;96902;-62
2022/07/25 15:20:20;;;;;;;4.70;4.20;;;;;;;35.63;26.73;95718.00;10136660;28;96791;-62
2022/07/25 15:25:23;;;;;;;4.43;4.03;;;;;;;36.47;25.48;95706.75;10135873;28;96985;-63
2022/07/25 15:30:47;;;;;;;4.90;3.90;;;;;;;36.76;25.47;95703.28;10135565;28;96963;-63
2022/07/25 15:35:51;;;;;;;4.32;3.92;;;;;;;36.47;25.66;95712.19;10134440;28;97435;-63
2022/07/25 15:40:54;;;;;;;4.35;3.55;;;;;;;37.49;24.93;95719.28;10130316;28;97821;-63
2022/07/25 15:45:57;;;;;;;4.10;3.67;;;;;;;37.89;24.44;95705.16;10133891;28;97061;-62
2022/07/25 15:51:01;;;;;;;5.00;3.47;;;;;;;37.96;24.04;95715.47;10131721;28;97693;-63
2022/07/25 15:56:05;;;;;;;5.85;4.15;;;;;;;39.40;22.94;95704.47;10143770;28;96783;-63
2022/07/25 16:01:08;;;;;;;4.85;4.00;;;;;;;39.97;22.09;95712.63;10150449;28;97279;-63
2022/07/25 16:06:12;;;;;;;4.03;3.38;;;;;;;41.07;20.44;95704.78;10138946;28;97690;-63
2022/07/25 16:11:20;;;;;;;4.05;3.65;;;;;;;40.78;21.36;95726.03;10134740;28;96880;-64
2022/07/25 16:16:24;;;;;;;5.13;3.90;;;;;;;40.05;21.08;95728.13;10129597;28;96859;-63
2022/07/25 16:21:29;;;;;;;5.93;3.85;;;;;;;39.50;21.78;95714.09;10136874;28;97159;-63
2022/07/25 16:26:32;;;;;;;5.72;4.10;;;;;;;40.38;21.43;95729.75;10128452;28;97327;-63
2022/07/25 16:31:34;;;;;;;4.80;3.38;;;;;;;40.11;22.14;95729.44;10131467;28;96954;-63
2022/07/25 16:36:39;;;;;;;3.80;3.25;;;;;;;39.10;22.95;95730.47;10129391;28;96823;-62
2022/07/25 16:41:43;;;;;;;4.97;4.40;;;;;;;37.93;24.06;95748.88;10131677;28;96873;-62
2022/07/25 16:46:46;;;;;;;5.03;3.72;;;;;;;36.40;25.38;95757.06;10130669;28;96842;-62
2022/07/25 16:51:50;;;;;;;4.50;4.10;;;;;;;35.85;26.16;95745.00;10129219;28;96830;-62
2022/07/25 16:56:53;;;;;;;17.00;15.50;;;;;;;35.82;25.66;95759.22;10131624;28;96813;-62
2022/07/25 17:02:02;;;;;;;5.05;3.92;;;;;;;35.31;26.85;95752.69;10129155;28;96723;-63
2022/07/25 17:07:07;;;;;;;4.45;3.90;;;;;;;34.04;28.58;95734.19;10130832;28;96856;-63
2022/07/25 17:12:09;;;;;;;6.28;3.92;;;;;;;33.72;28.68;95746.88;10130119;28;97239;-62
2022/07/25 17:17:13;;;;;;;4.88;4.38;;;;;;;33.88;28.54;95752.75;10127809;28;97263;-61
2022/07/25 17:22:17;;;;;;;4.82;4.05;;;;;;;34.19;28.58;95769.06;10126610;28;96888;-62
2022/07/25 17:27:20;;;;;;;4.35;3.95;;;;;;;33.55;29.59;95730.47;10130607;28;96739;-62
2022/07/25 17:32:23;;;;;;;6.65;4.13;;;;;;;32.88;30.50;95740.06;10125712;28;97163;-62
2022/07/25 17:37:33;;;;;;;6.32;4.20;;;;;;;32.07;32.01;95743.22;10122558;28;97882;-62
2022/07/25 17:42:35;;;;;;;6.38;4.55;;;;;;;32.76;30.96;95735.16;10124265;28;97025;-62
2022/07/25 17:47:44;;;;;;;4.50;4.10;;;;;;;33.78;29.58;95756.50;10124715;28;96773;-63
2022/07/25 17:52:49;;;;;;;5.53;3.88;;;;;;;34.17;29.14;95736.00;10120684;28;98072;-63
2022/07/25 17:57:54;;;;;;;4.35;3.78;;;;;;;33.06;30.45;95760.00;10114542;28;98194;-63
2022/07/25 18:02:58;;;;;;;4.70;4.10;;;;;;;31.76;32.38;95744.53;10110253;28;98049;-63
2022/07/25 18:08:02;;;;;;;6.00;4.30;;;;;;;30.77;33.63;95738.09;10099713;28;97802;-63
2022/07/25 18:13:07;;;;;;;4.70;3.97;;;;;;;29.88;35.12;95751.91;10110648;28;96968;-63
2022/07/25 18:18:12;;;;;;;6.72;4.82;;;;;;;29.03;36.42;95734.19;10116148;28;96980;-62
2022/07/25 18:23:25;;;;;;;5.63;3.72;;;;;;;28.59;37.26;95741.88;10119216;28;97428;-62
2022/07/25 18:28:28;;;;;;;6.47;4.07;;;;;;;28.03;38.22;95732.06;10128777;28;96930;-62
2022/07/25 18:33:31;;;;;;;8.20;5.00;;;;;;;27.77;38.58;95739.34;10126215;28;99178;-63
2022/07/25 18:38:36;;;;;;;5.33;4.50;;;;;;;27.56;39.30;95732.31;10124836;28;97856;-62
2022/07/25 18:43:39;;;;;;;6.22;4.45;;;;;;;27.30;39.38;95740.38;10122947;28;96966;-62
2022/07/25 18:48:44;;;;;;;4.55;4.00;;;;;;;27.12;39.19;95729.06;10120482;28;97165;-62
2022/07/25 18:53:48;;;;;;;4.75;3.78;;;;;;;26.91;39.58;95738.91;10122211;28;96932;-62
2022/07/25 18:58:51;;;;;;;6.28;4.60;;;;;;;26.68;39.30;95737.50;10118532;28;96884;-62
2022/07/25 19:03:55;;;;;;;6.68;4.10;;;;;;;26.54;39.54;95734.47;10125031;28;98079;-62
2022/07/25 19:08:59;;;;;;;6.83;4.17;;;;;;;26.37;39.77;95723.94;10121107;28;97515;-62
2022/07/25 19:14:02;;;;;;;5.55;3.92;;;;;;;26.21;39.99;95745.50;10123823;28;98076;-62
2022/07/25 19:19:05;;;;;;;5.75;3.95;;;;;;;26.09;40.12;95732.34;10125234;28;96806;-63
2022/07/25 19:24:10;;;;;;;6.70;3.87;;;;;;;25.99;39.72;95771.34;10124207;28;97959;-62
2022/07/25 19:29:15;;;;;;;4.57;3.67;;;;;;;25.88;39.53;95769.69;10137588;28;97033;-62
2022/07/25 19:34:18;;;;;;;7.78;4.05;;;;;;;25.77;39.73;95773.31;10135977;28;97303;-62
2022/07/25 19:39:23;;;;;;;7.88;3.63;;;;;;;25.68;39.80;95780.22;10116132;28;97165;-64
2022/07/25 19:44:26;;;;;;;4.72;3.15;;;;;;;25.56;39.65;95799.09;10127640;28;97331;-66
2022/07/25 19:49:29;;;;;;;6.57;3.65;;;;;;;25.47;39.44;95796.03;10122682;28;99161;-64
2022/07/25 19:54:33;;;;;;;4.78;3.10;;;;;;;25.39;39.23;95816.03;10121002;28;98696;-63
2022/07/25 19:59:36;;;;;;;5.75;2.75;;;;;;;25.35;39.38;95856.88;10127108;28;99318;-64
2022/07/25 20:04:39;;;;;;;5.07;3.40;;;;;;;25.41;39.19;95904.81;10093351;28;109334;-64
2022/07/25 20:09:43;;;;;;;4.93;3.40;;;;;;;25.62;39.06;95916.59;10106901;28;97054;-64
2022/07/25 20:14:46;;;;;;;6.95;3.03;;;;;;;25.81;39.01;95935.78;10082691;28;97073;-64
2022/07/25 20:19:50;;;;;;;4.97;3.42;;;;;;;26.00;38.20;95938.91;10084343;28;97966;-64
2022/07/25 20:24:54;;;;;;;9.18;6.25;;;;;;;26.08;38.43;95955.56;10080384;28;98438;-64
2022/07/25 20:29:58;;;;;;;6.22;3.75;;;;;;;26.12;38.34;95957.50;10084290;28;98374;-64
2022/07/25 20:35:01;;;;;;;5.93;3.30;;;;;;;26.13;38.31;95969.00;10080403;28;100070;-66
2022/07/25 20:40:08;;;;;;;5.43;4.10;;;;;;;26.08;39.05;95977.78;10083324;28;98585;-64
2022/07/25 20:45:11;;;;;;;4.85;3.13;;;;;;;25.99;38.30;95977.44;10082533;28;99726;-64
2022/07/25 20:50:14;;;;;;;5.00;3.83;;;;;;;25.97;37.81;95998.28;10081061;28;97558;-64
2022/07/25 21:06:44;;;;;;;3.90;2.58;;;;;;;26.56;36.63;96015.50;10369469;28;96800;-71
2022/07/25 21:11:47;;;;;;;3.58;2.38;;;;;;;26.14;36.68;95998.19;10327020;28;97102;-70
2022/07/25 21:16:50;;;;;;;5.72;2.53;;;;;;;25.76;36.69;95985.75;10329350;28;97233;-70
2022/07/25 21:21:55;;;;;;;4.37;2.40;;;;;;;25.56;37.03;95992.47;10313634;28;98618;-70
2022/07/25 21:26:58;;;;;;;3.60;2.33;;;;;;;25.68;36.50;96007.59;10320594;28;98185;-70
2022/07/25 21:32:00;;;;;;;6.55;2.55;;;;;;;25.49;37.18;96015.88;10329399;28;98050;-70
2022/07/25 21:37:05;;;;;;;4.93;2.10;;;;;;;25.32;38.23;96033.84;10323375;28;98175;-70
2022/07/25 21:42:08;;;;;;;4.78;2.60;;;;;;;25.10;37.97;96021.25;10325176;28;97065;-70
2022/07/25 21:47:12;;;;;;;3.67;2.20;;;;;;;25.11;37.86;96033.53;10320468;28;97120;-70
2022/07/25 21:52:17;;;;;;;3.97;1.95;;;;;;;24.82;37.74;96033.66;10321094;28;96868;-69
2022/07/25 21:57:20;;;;;;;3.60;2.10;;;;;;;24.92;37.33;96026.84;10321341;28;97085;-69
2022/07/25 22:02:23;;;;;;;4.80;1.87;;;;;;;24.91;37.81;96036.72;10328566;28;97247;-69
2022/07/25 22:07:28;;;;;;;2.77;1.80;;;;;;;24.76;38.20;96047.13;10322823;28;97034;-70
2022/07/25 22:12:31;;;;;;;6.82;1.70;;;;;;;24.69;38.57;96032.06;10312149;28;98040;-69
2022/07/25 22:17:34;;;;;;;4.55;1.73;;;;;;;24.63;38.20;96065.09;10301249;28;97604;-70
2022/07/25 22:22:52;;;;;;;3.47;1.85;;;;;;;24.52;39.49;96052.59;10294180;28;96769;-69
2022/07/25 22:27:55;;;;;;;3.45;1.70;;;;;;;24.33;38.85;96084.03;10293104;28;97048;-70
2022/07/25 22:32:58;;;;;;;3.97;1.80;;;;;;;24.31;38.69;96072.78;10297852;28;98857;-69
2022/07/25 22:38:02;;;;;;;2.55;1.42;;;;;;;24.36;38.89;96070.22;10298533;28;97562;-69
2022/07/25 22:43:05;;;;;;;2.22;1.40;;;;;;;24.39;39.19;96076.94;10297622;28;96724;-69
2022/07/25 22:48:08;;;;;;;3.85;1.27;;;;;;;24.44;39.01;96080.50;10291922;28;98808;-69
2022/07/25 22:53:12;;;;;;;2.83;1.60;;;;;;;24.49;38.97;96075.28;10297903;28;97208;-71
2022/07/25 22:58:15;;;;;;;1.90;1.20;;;;;;;24.39;39.78;96096.44;10290856;28;98721;-69
2022/07/25 23:03:18;;;;;;;3.97;1.50;;;;;;;24.19;41.04;96085.38;10286494;28;98359;-69
2022/07/25 23:08:22;;;;;;;2.80;1.40;;;;;;;24.04;41.70;96099.22;10288066;28;96905;-69
2022/07/25 23:13:25;;;;;;;3.35;1.00;;;;;;;23.81;42.82;96100.06;10278365;28;96910;-69
2022/07/25 23:18:28;;;;;;;2.95;1.23;;;;;;;23.75;43.35;96093.81;10278876;28;98391;-69
2022/07/25 23:23:32;;;;;;;2.47;1.20;;;;;;;23.74;43.13;96097.50;10286997;28;98235;-69
2022/07/25 23:28:35;;;;;;;3.35;1.38;;;;;;;23.60;44.08;96114.81;10270678;28;98470;-69
2022/07/25 23:33:38;;;;;;;4.70;1.30;;;;;;;23.33;45.30;96115.28;10276993;28;96786;-69
2022/07/25 23:38:42;;;;;;;2.22;1.13;;;;;;;23.38;45.24;96110.09;10290384;28;96975;-69
2022/07/25 23:43:45;;;;;;;;;;;;;;;23.29;44.96;96108.78;10288195;28;96972;-69
2022/07/25 23:49:00;;;;;;;3.37;1.30;;;;;;;23.17;45.94;96114.09;10290537;28;97088;-70